createdAt,value
2018-08-23T00:00:43.610Z,7.30
2018-08-23T00:03:16.451Z,7.63
2018-08-23T00:05:49.439Z,8.30
2018-08-23T00:08:16.407Z,8.77
2018-08-23T00:10:43.367Z,8.00
2018-08-23T00:13:10.223Z,7.60
2018-08-23T00:15:37.181Z,8.40
2018-08-23T00:18:04.156Z,8.13
2018-08-23T00:20:31.107Z,7.93
2018-08-23T00:22:58.082Z,7.40
2018-08-23T00:25:25.049Z,7.60
2018-08-23T00:27:51.963Z,8.63
2018-08-23T00:30:19.770Z,8.23
2018-08-23T00:32:46.666Z,8.50
2018-08-23T00:35:20.724Z,7.90
2018-08-23T00:37:47.838Z,8.40
2018-08-23T00:40:15.346Z,8.80
2018-08-23T00:42:43.794Z,8.07
2018-08-23T00:45:14.526Z,7.93
2018-08-23T00:47:41.529Z,8.23
2018-08-23T00:50:09.466Z,7.73
2018-08-23T00:52:41.714Z,7.50
2018-08-23T00:55:16.138Z,8.23
2018-08-23T00:57:43.920Z,8.50
2018-08-23T01:00:15.402Z,8.40
2018-08-23T01:02:46.433Z,8.87
2018-08-23T01:05:15.075Z,8.03
2018-08-23T01:07:42.586Z,8.03
2018-08-23T01:10:11.547Z,8.30
2018-08-23T01:12:50.267Z,8.30
2018-08-23T01:15:17.198Z,7.87
2018-08-23T01:17:44.630Z,7.83
2018-08-23T01:20:11.527Z,9.10
2018-08-23T01:22:59.218Z,8.17
2018-08-23T01:25:30.490Z,7.77
2018-08-23T01:27:57.350Z,8.50
2018-08-23T01:30:24.210Z,8.10
2018-08-23T01:32:51.098Z,8.10
2018-08-23T01:35:18.055Z,8.60
2018-08-23T01:37:45.018Z,9.23
2018-08-23T01:40:12.039Z,8.57
2018-08-23T01:42:40.050Z,8.50
2018-08-23T01:45:08.330Z,7.87
2018-08-23T01:47:59.331Z,7.87
2018-08-23T01:50:26.842Z,8.07
2018-08-23T01:52:56.043Z,7.43
2018-08-23T01:55:24.738Z,9.00
2018-08-23T01:57:51.898Z,7.47
2018-08-23T02:00:22.150Z,7.23
2018-08-23T02:02:49.165Z,8.83
2018-08-23T02:05:16.024Z,8.60
2018-08-23T02:07:42.910Z,8.27
2018-08-23T02:10:09.870Z,8.67
2018-08-23T02:12:36.722Z,8.77
2018-08-23T02:15:06.389Z,9.40
2018-08-23T02:17:35.502Z,8.00
2018-08-23T02:20:02.418Z,8.30
2018-08-23T02:22:30.298Z,8.97
2018-08-23T02:25:00.861Z,8.40
2018-08-23T02:27:27.698Z,7.50
2018-08-23T02:29:54.645Z,8.30
2018-08-23T02:32:21.594Z,9.50
2018-08-23T02:34:48.649Z,8.97
2018-08-23T02:37:16.454Z,8.70
2018-08-23T02:39:44.211Z,9.27
2018-08-23T02:42:14.446Z,9.80
2018-08-23T02:44:42.159Z,8.80
2018-08-23T02:47:09.711Z,9.33
2018-08-23T02:49:36.649Z,9.07
2018-08-23T02:52:04.030Z,9.13
2018-08-23T02:54:31.994Z,9.07
2018-08-23T02:56:59.678Z,9.20
2018-08-23T02:59:27.350Z,8.50
2018-08-23T03:01:54.318Z,8.87
2018-08-23T03:04:25.052Z,9.70
2018-08-23T03:06:53.450Z,8.20
2018-08-23T03:09:24.458Z,8.70
2018-08-23T03:11:52.597Z,9.47
2018-08-23T03:14:20.630Z,8.90
2018-08-23T03:16:52.765Z,9.50
2018-08-23T03:19:19.750Z,8.70
2018-08-23T03:21:57.355Z,8.73
2018-08-23T03:24:24.259Z,8.30
2018-08-23T03:26:51.242Z,8.73
2018-08-23T03:29:18.174Z,9.70
2018-08-23T03:31:45.223Z,8.60
2018-08-23T03:34:12.101Z,8.70
2018-08-23T03:36:39.046Z,8.70
2018-08-23T03:39:08.066Z,10.23
2018-08-23T03:41:35.722Z,11.57
2018-08-23T03:44:02.693Z,10.33
2018-08-23T03:46:29.583Z,10.70
2018-08-23T03:49:02.186Z,12.00
2018-08-23T03:51:29.294Z,10.20
2018-08-23T03:53:59.250Z,11.13
2018-08-23T03:56:27.698Z,10.03
2018-08-23T03:58:57.702Z,10.50
2018-08-23T04:01:24.653Z,10.57
2018-08-23T04:03:52.583Z,10.50
2018-08-23T04:06:31.066Z,10.83
2018-08-23T04:08:58.694Z,10.73
2018-08-23T04:11:27.318Z,11.00
2018-08-23T04:13:57.392Z,10.70
2018-08-23T04:16:26.863Z,10.60
2018-08-23T04:18:54.274Z,10.80
2018-08-23T04:21:22.787Z,11.13
2018-08-23T04:23:52.745Z,10.87
2018-08-23T04:26:20.095Z,10.53
2018-08-23T04:28:47.090Z,10.10
2018-08-23T04:31:14.007Z,10.60
2018-08-23T04:36:19.099Z,9.77
2018-08-23T04:38:50.726Z,9.53
2018-08-23T04:41:19.246Z,11.20
2018-08-23T04:43:50.254Z,10.43
2018-08-23T04:46:21.342Z,11.17
2018-08-23T04:48:48.320Z,10.57
2018-08-23T04:51:18.226Z,12.00
2018-08-23T04:53:54.931Z,10.80
2018-08-23T04:56:21.870Z,11.57
2018-08-23T04:58:50.789Z,10.57
2018-08-23T05:01:17.774Z,9.90
2018-08-23T05:03:44.690Z,11.67
2018-08-23T05:06:20.789Z,9.87
2018-08-23T05:08:53.877Z,10.10
2018-08-23T05:11:20.816Z,10.53
2018-08-23T05:13:48.090Z,10.40
2018-08-23T05:16:15.040Z,10.20
2018-08-23T05:18:41.924Z,9.63
2018-08-23T05:21:15.074Z,10.90
2018-08-23T05:23:41.927Z,10.57
2018-08-23T05:26:15.027Z,10.10
2018-08-23T05:29:00.678Z,10.53
2018-08-23T05:31:28.934Z,10.93
2018-08-23T05:33:57.891Z,10.93
2018-08-23T05:36:24.905Z,10.73
2018-08-23T05:38:51.890Z,11.97
2018-08-23T05:41:19.754Z,9.77
2018-08-23T05:43:58.406Z,11.07
2018-08-23T05:46:25.446Z,11.00
2018-08-23T05:48:52.400Z,10.27
2018-08-23T05:51:20.304Z,10.80
2018-08-23T05:53:50.312Z,11.73
2018-08-23T05:56:18.238Z,11.40
2018-08-23T05:58:46.790Z,11.70
2018-08-23T06:01:16.710Z,10.60
2018-08-23T06:03:44.301Z,11.07
2018-08-23T06:06:11.238Z,11.10
2018-08-23T06:08:42.010Z,11.40
2018-08-23T06:11:10.083Z,10.87
2018-08-23T06:13:37.235Z,10.20
2018-08-23T06:16:04.235Z,10.27
2018-08-23T06:18:34.170Z,10.73
2018-08-23T06:21:01.136Z,10.80
2018-08-23T06:23:51.543Z,10.07
2018-08-23T06:26:20.237Z,10.30
2018-08-23T06:28:47.167Z,9.30
2018-08-23T06:31:14.111Z,9.80
2018-08-23T06:33:46.965Z,10.40
2018-08-23T06:36:13.750Z,9.73
2018-08-23T06:38:48.233Z,9.70
2018-08-23T06:41:15.133Z,10.85
2018-08-23T06:43:42.097Z,10.37
2018-08-23T06:46:09.936Z,9.83
2018-08-23T06:48:39.766Z,9.50
2018-08-23T06:51:09.119Z,10.73
2018-08-23T06:53:45.182Z,10.03
2018-08-23T06:56:12.210Z,8.60
2018-08-23T06:58:39.086Z,11.17
2018-08-23T07:01:12.614Z,9.50
2018-08-23T07:03:49.394Z,9.70
2018-08-23T07:06:19.938Z,9.60
2018-08-23T07:08:53.071Z,9.73
2018-08-23T07:11:20.098Z,9.27
2018-08-23T07:14:09.510Z,9.90
2018-08-23T07:16:36.462Z,9.38
2018-08-23T07:19:26.749Z,8.63
2018-08-23T07:22:03.769Z,8.90
2018-08-23T07:24:43.166Z,8.60
2018-08-23T07:27:11.394Z,7.90
2018-08-23T07:29:38.370Z,8.00
2018-08-23T07:32:06.577Z,7.83
2018-08-23T07:34:33.806Z,7.83
2018-08-23T07:37:17.350Z,8.40
2018-08-23T07:40:04.714Z,8.43
2018-08-23T07:42:32.573Z,8.20
2018-08-23T07:45:02.806Z,7.63
2018-08-23T07:47:30.254Z,9.10
2018-08-23T07:49:58.450Z,9.87
2018-08-23T07:52:26.485Z,7.87
2018-08-23T07:54:56.765Z,7.80
2018-08-23T07:57:29.430Z,7.70
2018-08-23T08:00:02.214Z,8.00
2018-08-23T08:02:29.323Z,8.70
2018-08-23T08:04:56.891Z,8.33
2018-08-23T08:07:25.898Z,8.20
2018-08-23T08:09:53.954Z,8.30
2018-08-23T08:12:36.003Z,7.50
2018-08-23T08:15:04.370Z,8.50
2018-08-23T08:17:32.394Z,8.60
2018-08-23T08:20:00.387Z,8.13
2018-08-23T08:22:27.284Z,8.70
2018-08-23T08:25:10.287Z,8.20
2018-08-23T08:27:41.931Z,9.97
2018-08-23T08:30:12.170Z,8.33
2018-08-23T08:32:39.139Z,8.78
2018-08-23T08:35:13.426Z,7.90
2018-08-23T08:37:40.290Z,7.53
2018-08-23T08:40:12.278Z,7.20
2018-08-23T08:42:39.976Z,7.80
2018-08-23T08:45:14.459Z,7.33
2018-08-23T08:47:42.858Z,7.57
2018-08-23T08:50:09.852Z,7.07
2018-08-23T08:52:36.899Z,7.00
2018-08-23T08:55:05.578Z,7.47
2018-08-23T08:57:32.715Z,7.83
2018-08-23T09:00:00.098Z,6.50
2018-08-23T09:02:29.479Z,7.07
2018-08-23T09:04:56.359Z,7.27
2018-08-23T09:07:28.248Z,5.87
2018-08-23T09:09:55.996Z,6.50
2018-08-23T09:12:22.878Z,6.07
2018-08-23T09:14:53.367Z,6.20
2018-08-23T09:17:38.914Z,5.60
2018-08-23T09:20:23.931Z,5.40
2018-08-23T09:22:53.203Z,5.07
2018-08-23T09:25:24.797Z,5.43
2018-08-23T09:27:51.934Z,5.10
2018-08-23T09:30:24.980Z,5.70
2018-08-23T09:32:51.900Z,5.13
2018-08-23T09:35:24.794Z,5.07
2018-08-23T09:37:55.637Z,5.03
2018-08-23T09:40:24.114Z,4.90
2018-08-23T09:42:51.945Z,4.13
2018-08-23T09:45:18.884Z,3.10
2018-08-23T09:47:45.842Z,3.93
2018-08-23T09:50:12.864Z,2.80
2018-08-23T09:52:41.383Z,2.63
2018-08-23T09:55:09.670Z,2.50
2018-08-23T09:57:36.829Z,3.00
2018-08-23T10:00:09.164Z,2.40
2018-08-23T10:02:48.330Z,2.90
2018-08-23T10:05:27.210Z,2.80
2018-08-23T10:07:59.709Z,3.20
2018-08-23T10:10:32.458Z,2.93
2018-08-23T10:13:06.946Z,2.97
2018-08-23T10:16:00.130Z,2.87
2018-08-23T10:18:32.723Z,3.17
2018-08-23T10:21:01.084Z,2.60
2018-08-23T10:23:28.072Z,2.60
2018-08-23T10:25:58.367Z,3.47
2018-08-23T10:28:26.587Z,2.93
2018-08-23T10:30:53.714Z,3.00
2018-08-23T10:33:20.580Z,2.90
2018-08-23T10:35:52.949Z,2.80
2018-08-23T10:38:22.101Z,3.00
2018-08-23T10:40:52.294Z,3.00
2018-08-23T10:43:25.150Z,3.10
2018-08-23T10:46:01.882Z,3.10
2018-08-23T10:48:35.006Z,3.47
2018-08-23T10:51:02.089Z,3.03
2018-08-23T10:53:29.939Z,2.97
2018-08-23T10:55:56.890Z,2.80
2018-08-23T10:58:24.882Z,3.37
2018-08-23T11:00:57.886Z,3.10
2018-08-23T11:03:24.814Z,2.93
2018-08-23T11:05:52.183Z,2.53
2018-08-23T11:08:20.887Z,2.90
2018-08-23T11:10:59.795Z,3.33
2018-08-23T11:13:32.418Z,3.33
2018-08-23T11:16:05.354Z,3.07
2018-08-23T11:18:38.098Z,3.40
2018-08-23T11:21:05.100Z,3.17
2018-08-23T11:23:31.939Z,3.17
2018-08-23T11:25:58.914Z,3.07
2018-08-23T11:28:26.420Z,3.20
2018-08-23T11:30:58.599Z,2.90
2018-08-23T11:33:25.502Z,3.20
2018-08-23T11:35:52.453Z,3.07
2018-08-23T11:38:19.423Z,2.87
2018-08-23T11:40:46.354Z,3.07
2018-08-23T11:43:13.339Z,3.33
2018-08-23T11:45:40.304Z,2.90
2018-08-23T11:48:07.214Z,3.10
2018-08-23T11:50:34.217Z,2.90
2018-08-23T11:53:02.201Z,3.07
2018-08-23T11:55:31.230Z,2.70
2018-08-23T11:57:58.123Z,2.80
2018-08-23T12:00:31.226Z,3.20
2018-08-23T12:02:58.190Z,3.10
2018-08-23T12:05:27.198Z,3.50
2018-08-23T12:07:57.038Z,2.97
2018-08-23T12:10:29.010Z,3.30
2018-08-23T12:12:56.608Z,3.00
2018-08-23T12:15:25.176Z,3.50
2018-08-23T12:17:52.427Z,2.93
2018-08-23T12:20:20.414Z,3.20
2018-08-23T12:22:51.064Z,3.83
2018-08-23T12:25:18.029Z,2.93
2018-08-23T12:28:20.466Z,3.30
2018-08-23T12:30:48.158Z,3.40
2018-08-23T12:33:15.060Z,3.17
2018-08-23T12:35:42.039Z,3.60
2018-08-23T12:38:17.244Z,3.27
2018-08-23T12:40:50.042Z,3.20
2018-08-23T12:43:24.685Z,2.87
2018-08-23T12:45:59.706Z,2.87
2018-08-23T12:48:28.780Z,3.40
2018-08-23T12:50:56.794Z,3.07
2018-08-23T12:53:23.843Z,3.90
2018-08-23T12:55:50.747Z,3.60
2018-08-23T12:58:17.722Z,3.90
2018-08-23T13:00:44.698Z,3.17
2018-08-23T13:03:11.675Z,3.37
2018-08-23T13:05:38.875Z,3.20
2018-08-23T13:08:06.239Z,3.13
2018-08-23T13:10:37.848Z,3.20
2018-08-23T13:13:05.574Z,2.90
2018-08-23T13:15:32.558Z,3.03
2018-08-23T13:17:59.620Z,3.40
2018-08-23T13:20:26.466Z,3.03
2018-08-23T13:22:53.446Z,2.80
2018-08-23T13:25:20.338Z,3.30
2018-08-23T13:27:47.293Z,3.60
2018-08-23T13:30:17.294Z,2.87
2018-08-23T13:32:45.182Z,3.00
2018-08-23T13:35:13.151Z,3.13
2018-08-23T13:37:40.122Z,3.03
2018-08-23T13:40:14.794Z,2.80
2018-08-23T13:42:41.834Z,3.00
2018-08-23T13:45:09.818Z,3.00
2018-08-23T13:47:37.759Z,2.90
2018-08-23T13:50:05.626Z,3.17
2018-08-23T13:54:59.602Z,2.40
2018-08-23T13:57:26.522Z,2.60
2018-08-23T13:59:53.499Z,2.53
2018-08-23T14:02:20.428Z,2.10
2018-08-23T14:04:47.431Z,2.93
2018-08-23T14:07:15.486Z,3.10
2018-08-23T14:09:43.256Z,3.17
2018-08-23T14:12:10.200Z,2.40
2018-08-23T14:14:37.150Z,2.40
2018-08-23T14:17:05.158Z,2.77
2018-08-23T14:19:32.427Z,2.77
2018-08-23T14:21:59.362Z,2.83
2018-08-23T14:24:26.338Z,2.67
2018-08-23T14:26:53.297Z,2.70
2018-08-23T14:29:20.260Z,2.47
2018-08-23T14:31:47.210Z,2.40
2018-08-23T14:34:14.171Z,2.40
2018-08-23T14:36:41.164Z,2.73
2018-08-23T14:39:09.324Z,3.37
2018-08-23T14:41:36.703Z,2.40
2018-08-23T14:44:03.686Z,3.00
2018-08-23T14:46:36.492Z,2.65
2018-08-23T14:49:03.520Z,2.50
2018-08-23T14:51:31.111Z,2.50
2018-08-23T14:53:58.128Z,2.50
2018-08-23T14:56:34.453Z,3.07
2018-08-23T14:59:01.540Z,2.57
2018-08-23T15:01:28.462Z,2.63
2018-08-23T15:03:55.508Z,2.80
2018-08-23T15:06:22.436Z,2.53
2018-08-23T15:08:49.406Z,3.10
2018-08-23T15:11:18.238Z,2.93
2018-08-23T15:13:45.179Z,2.70
2018-08-23T15:16:12.135Z,2.47
2018-08-23T15:18:39.467Z,2.43
2018-08-23T15:21:06.398Z,2.80
2018-08-23T15:23:33.326Z,3.17
2018-08-23T15:26:01.319Z,2.90
2018-08-23T15:28:29.255Z,2.60
2018-08-23T15:30:57.222Z,2.67
2018-08-23T15:33:24.297Z,2.53
2018-08-23T15:35:51.295Z,2.60
2018-08-23T15:38:18.359Z,2.93
2018-08-23T15:40:46.381Z,2.63
2018-08-23T15:43:13.371Z,3.63
2018-08-23T15:45:40.317Z,2.93
2018-08-23T15:48:07.272Z,3.00
2018-08-23T15:50:34.225Z,2.80
2018-08-23T15:53:01.191Z,2.47
2018-08-23T15:55:28.548Z,2.93
2018-08-23T15:57:55.329Z,2.67
2018-08-23T16:00:22.226Z,2.57
2018-08-23T16:02:49.558Z,3.07
2018-08-23T16:05:16.800Z,2.60
2018-08-23T16:07:43.678Z,2.73
2018-08-23T16:10:10.897Z,2.83
2018-08-23T16:12:37.886Z,2.60
2018-08-23T16:15:10.566Z,2.30
2018-08-23T16:17:43.175Z,2.20
2018-08-23T16:20:15.991Z,2.67
2018-08-23T16:22:43.326Z,3.30
2018-08-23T16:25:10.333Z,2.80
2018-08-23T16:27:38.253Z,2.57
2018-08-23T16:30:05.383Z,2.43
2018-08-23T16:32:32.352Z,2.67
2018-08-23T16:34:59.303Z,2.93
2018-08-23T16:37:26.322Z,2.60
2018-08-23T16:39:53.170Z,2.70
2018-08-23T16:42:20.080Z,2.63
2018-08-23T16:44:47.086Z,2.80
2018-08-23T16:47:13.978Z,2.90
2018-08-23T16:49:40.894Z,2.50
2018-08-23T16:52:07.980Z,2.40
2018-08-23T16:54:35.137Z,3.23
2018-08-23T16:57:02.149Z,3.57
2018-08-23T16:59:29.144Z,4.07
2018-08-23T17:01:56.250Z,3.27
2018-08-23T17:04:41.610Z,2.70
2018-08-23T17:07:08.698Z,3.67
2018-08-23T17:09:35.634Z,3.97
2018-08-23T17:12:15.308Z,4.00
2018-08-23T17:14:42.246Z,3.50
2018-08-23T17:17:15.059Z,3.50
2018-08-23T17:19:42.022Z,4.70
2018-08-23T17:22:08.939Z,4.37
2018-08-23T17:24:36.203Z,4.90
2018-08-23T17:27:04.102Z,5.33
2018-08-23T17:29:31.158Z,5.80
2018-08-23T17:31:58.106Z,4.30
2018-08-23T17:34:25.130Z,5.43
2018-08-23T17:36:52.098Z,4.83
2018-08-23T17:39:19.041Z,4.83
2018-08-23T17:41:45.963Z,4.67
2018-08-23T17:44:12.922Z,3.90
2018-08-23T17:46:39.908Z,4.83
2018-08-23T17:49:06.818Z,5.10
2018-08-23T17:51:34.329Z,5.53
2018-08-23T17:54:01.222Z,4.93
2018-08-23T17:56:28.209Z,5.30
2018-08-23T17:58:55.167Z,5.83
2018-08-23T18:01:22.155Z,5.70
2018-08-23T18:03:49.066Z,4.90
2018-08-23T18:06:16.047Z,5.67
2018-08-23T18:08:42.998Z,5.27
2018-08-23T18:11:09.964Z,5.20
2018-08-23T18:13:36.902Z,5.17
2018-08-23T18:16:09.701Z,5.03
2018-08-23T18:18:36.546Z,5.23
2018-08-23T18:21:03.634Z,5.43
2018-08-23T18:23:30.597Z,5.47
2018-08-23T18:25:58.338Z,4.80
2018-08-23T18:28:25.336Z,5.07
2018-08-23T18:30:52.295Z,5.10
2018-08-23T18:33:19.233Z,5.43
2018-08-23T18:35:46.187Z,5.10
2018-08-23T18:38:13.158Z,4.83
2018-08-23T18:40:40.098Z,5.30
2018-08-23T18:43:07.045Z,7.20
2018-08-23T18:45:34.002Z,5.40
2018-08-23T18:48:00.967Z,5.33
2018-08-23T18:50:27.938Z,4.90
2018-08-23T18:52:54.878Z,5.47
2018-08-23T18:55:21.746Z,4.87
2018-08-23T18:57:48.658Z,4.63
2018-08-23T19:00:15.615Z,5.47
2018-08-23T19:02:42.502Z,5.37
2018-08-23T19:05:09.474Z,4.53
2018-08-23T19:07:41.865Z,3.93
2018-08-23T19:10:09.732Z,4.50
2018-08-23T19:12:36.598Z,4.37
2018-08-23T19:15:03.842Z,3.50
2018-08-23T19:17:35.202Z,4.10
2018-08-23T19:20:02.174Z,4.30
2018-08-23T19:22:29.173Z,3.80
2018-08-23T19:24:56.345Z,3.83
2018-08-23T19:27:23.255Z,3.97
2018-08-23T19:29:50.233Z,3.00
2018-08-23T19:32:17.154Z,3.93
2018-08-23T19:34:44.106Z,3.93
2018-08-23T19:37:11.103Z,4.27
2018-08-23T19:39:38.114Z,6.57
2018-08-23T19:42:05.090Z,8.93
2018-08-23T19:44:32.062Z,19.40
2018-08-23T19:47:04.826Z,30.90
2018-08-23T19:49:37.499Z,16.07
2018-08-23T19:52:04.406Z,12.60
2018-08-23T19:54:31.371Z,8.30
2018-08-23T19:56:58.323Z,9.03
2018-08-23T19:59:25.309Z,8.53
2018-08-23T20:01:52.211Z,7.90
2018-08-23T20:04:19.169Z,14.07
2018-08-23T20:06:46.211Z,5.10
2018-08-23T20:09:13.110Z,3.87
2018-08-23T20:11:40.039Z,3.40
2018-08-23T20:14:08.037Z,3.80
2018-08-23T20:16:34.974Z,3.50
2018-08-23T20:19:05.202Z,3.57
2018-08-23T20:21:32.182Z,3.47
2018-08-23T20:23:59.182Z,3.83
2018-08-23T20:26:26.347Z,4.20
2018-08-23T20:28:53.251Z,3.50
2018-08-23T20:31:20.211Z,3.37
2018-08-23T20:33:47.163Z,3.47
2018-08-23T20:36:14.846Z,3.87
2018-08-23T20:38:41.805Z,3.67
2018-08-23T20:41:08.787Z,4.03
2018-08-23T20:43:35.729Z,3.43
2018-08-23T20:46:02.675Z,3.63
2018-08-23T20:48:29.542Z,3.57
2018-08-23T20:50:56.565Z,3.47
2018-08-23T20:53:23.458Z,3.20
2018-08-23T20:55:50.492Z,3.80
2018-08-23T20:58:18.514Z,3.50
2018-08-23T21:00:45.358Z,3.37
2018-08-23T21:03:12.318Z,3.27
2018-08-23T21:05:39.290Z,4.00
2018-08-23T21:08:06.910Z,4.00
2018-08-23T21:10:33.926Z,3.70
2018-08-23T21:13:00.898Z,3.83
2018-08-23T21:15:27.827Z,3.80
2018-08-23T21:17:54.851Z,3.70
2018-08-23T21:20:21.782Z,3.73
2018-08-23T21:22:49.414Z,4.33
2018-08-23T21:25:16.407Z,3.57
2018-08-23T21:27:43.310Z,3.77
2018-08-23T21:30:10.358Z,4.00
2018-08-23T21:32:37.254Z,3.57
2018-08-23T21:35:04.194Z,4.50
2018-08-23T21:37:31.193Z,4.53
2018-08-23T21:39:58.174Z,4.77
2018-08-23T21:42:25.085Z,4.03
2018-08-23T21:44:52.009Z,4.67
2018-08-23T21:47:18.971Z,4.30
2018-08-23T21:49:45.930Z,4.20
2018-08-23T21:52:12.910Z,4.70
2018-08-23T21:54:39.843Z,4.27
2018-08-23T21:57:07.646Z,4.00
2018-08-23T21:59:34.555Z,4.77
2018-08-23T22:02:07.246Z,4.40
2018-08-23T22:04:50.730Z,4.40
2018-08-23T22:07:17.690Z,4.53
2018-08-23T22:09:47.974Z,4.87
2018-08-23T22:12:14.870Z,4.20
2018-08-23T22:14:41.819Z,4.13
2018-08-23T22:17:08.775Z,4.20
2018-08-23T22:19:35.763Z,4.47
2018-08-23T22:22:02.743Z,3.70
2018-08-23T22:24:29.633Z,4.87
2018-08-23T22:26:56.703Z,4.30
2018-08-23T22:29:23.567Z,5.80
2018-08-23T22:31:50.449Z,5.20
2018-08-23T22:34:17.426Z,4.60
2018-08-23T22:36:44.351Z,4.83
2018-08-23T22:39:11.281Z,5.07
2018-08-23T22:41:38.282Z,4.53
2018-08-23T22:44:05.288Z,4.97
2018-08-23T22:46:32.147Z,4.80
2018-08-23T22:48:59.163Z,4.73
2018-08-23T22:51:26.133Z,4.80
2018-08-23T22:53:53.051Z,4.70
2018-08-23T22:56:19.990Z,4.93
2018-08-23T22:58:46.914Z,5.07
2018-08-23T23:01:14.412Z,4.93
2018-08-23T23:03:47.797Z,4.90
2018-08-23T23:06:15.506Z,4.67
2018-08-23T23:08:42.418Z,5.07
2018-08-23T23:11:09.331Z,5.40
2018-08-23T23:13:36.291Z,5.23
2018-08-23T23:16:03.238Z,4.50
2018-08-23T23:18:30.177Z,5.07
2018-08-23T23:20:57.938Z,5.50
2018-08-23T23:23:24.814Z,5.10
2018-08-23T23:25:52.818Z,4.40
2018-08-23T23:28:19.763Z,4.80
2018-08-23T23:30:46.714Z,6.23
2018-08-23T23:33:15.486Z,5.30
2018-08-23T23:35:42.371Z,5.30
2018-08-23T23:38:09.336Z,4.87
2018-08-23T23:40:38.050Z,5.40
2018-08-23T23:43:04.963Z,5.00
2018-08-23T23:45:31.863Z,5.30
2018-08-23T23:47:58.815Z,5.87
2018-08-23T23:50:25.758Z,5.17
2018-08-23T23:52:53.550Z,5.73
2018-08-23T23:55:20.514Z,5.57
2018-08-23T23:57:47.455Z,5.07
